sensor_id;sensor_type;location;lat;lon;timestamp;pressure;altitude;pressure_sealevel;temperature;humidity
9721;BME280;4899;42.644;23.366;2023-02-28T00:00:36;94703.19;;;6.24;100.00
9721;BME280;4899;42.644;23.366;2023-02-28T00:03:02;94695.06;;;6.17;100.00
9721;BME280;4899;42.644;23.366;2023-02-28T00:05:28;94699.66;;;6.20;100.00
9721;BME280;4899;42.644;23.366;2023-02-28T00:07:55;94699.94;;;6.13;100.00
9721;BME280;4899;42.644;23.366;2023-02-28T00:10:23;94643.66;;;5.90;100.00
9721;BME280;4899;42.644;23.366;2023-02-28T00:12:50;94687.88;;;6.19;100.00
9721;BME280;4899;42.644;23.366;2023-02-28T00:15:16;94699.72;;;6.10;100.00
9721;BME280;4899;42.644;23.366;2023-02-28T00:17:42;94706.28;;;6.21;100.00
9721;BME280;4899;42.644;23.366;2023-02-28T00:20:09;94694.53;;;6.20;100.00
9721;BME280;4899;42.644;23.366;2023-02-28T00:22:38;94697.09;;;6.20;100.00
9721;BME280;4899;42.644;23.366;2023-02-28T00:25:05;94696.78;;;6.27;100.00
9721;BME280;4899;42.644;23.366;2023-02-28T00:27:32;94687.06;;;6.29;100.00
9721;BME280;4899;42.644;23.366;2023-02-28T00:29:58;94694.47;;;6.30;100.00
9721;BME280;4899;42.644;23.366;2023-02-28T00:32:23;94697.78;;;6.31;100.00
9721;BME280;4899;42.644;23.366;2023-02-28T00:34:49;94693.69;;;6.30;100.00
9721;BME280;4899;42.644;23.366;2023-02-28T00:37:14;94707.78;;;6.27;100.00
9721;BME280;4899;42.644;23.366;2023-02-28T00:39:40;94688.91;;;6.18;100.00
9721;BME280;4899;42.644;23.366;2023-02-28T00:42:06;94690.44;;;6.19;100.00
9721;BME280;4899;42.644;23.366;2023-02-28T00:44:32;94676.19;;;6.13;100.00
9721;BME280;4899;42.644;23.366;2023-02-28T00:46:59;94683.63;;;6.09;100.00
9721;BME280;4899;42.644;23.366;2023-02-28T00:49:25;94679.00;;;6.11;100.00
9721;BME280;4899;42.644;23.366;2023-02-28T00:51:51;94677.78;;;6.04;100.00
9721;BME280;4899;42.644;23.366;2023-02-28T00:54:17;94678.06;;;6.02;100.00
9721;BME280;4899;42.644;23.366;2023-02-28T00:56:43;94687.56;;;5.97;100.00
9721;BME280;4899;42.644;23.366;2023-02-28T00:59:08;94698.28;;;5.88;100.00
9721;BME280;4899;42.644;23.366;2023-02-28T01:01:34;94701.59;;;5.94;100.00
9721;BME280;4899;42.644;23.366;2023-02-28T01:04:00;94690.88;;;5.92;100.00
9721;BME280;4899;42.644;23.366;2023-02-28T01:06:25;94697.78;;;5.97;100.00
9721;BME280;4899;42.644;23.366;2023-02-28T01:08:51;94696.22;;;6.01;100.00
9721;BME280;4899;42.644;23.366;2023-02-28T01:11:17;94698.44;;;6.07;100.00
9721;BME280;4899;42.644;23.366;2023-02-28T01:13:44;94693.34;;;6.07;100.00
9721;BME280;4899;42.644;23.366;2023-02-28T01:16:10;94699.22;;;6.08;100.00
9721;BME280;4899;42.644;23.366;2023-02-28T01:18:36;94690.56;;;6.04;100.00
9721;BME280;4899;42.644;23.366;2023-02-28T01:21:11;94672.75;;;5.94;100.00
9721;BME280;4899;42.644;23.366;2023-02-28T01:23:38;94677.34;;;5.97;100.00
9721;BME280;4899;42.644;23.366;2023-02-28T01:26:17;94680.88;;;6.01;100.00
9721;BME280;4899;42.644;23.366;2023-02-28T01:28:43;94680.41;;;5.94;100.00
9721;BME280;4899;42.644;23.366;2023-02-28T01:31:09;94683.50;;;5.91;100.00
9721;BME280;4899;42.644;23.366;2023-02-28T01:33:35;94679.91;;;5.86;100.00
9721;BME280;4899;42.644;23.366;2023-02-28T01:36:17;94671.84;;;5.74;100.00
9721;BME280;4899;42.644;23.366;2023-02-28T01:38:45;94693.78;;;5.75;100.00
9721;BME280;4899;42.644;23.366;2023-02-28T01:41:26;94696.88;;;5.72;100.00
9721;BME280;4899;42.644;23.366;2023-02-28T01:46:20;94688.72;;;5.70;100.00
9721;BME280;4899;42.644;23.366;2023-02-28T01:48:49;94681.09;;;5.60;100.00
9721;BME280;4899;42.644;23.366;2023-02-28T01:51:41;94691.75;;;5.67;100.00
9721;BME280;4899;42.644;23.366;2023-02-28T01:54:14;94690.25;;;5.66;100.00
9721;BME280;4899;42.644;23.366;2023-02-28T01:56:48;94701.47;;;5.70;100.00
9721;BME280;4899;42.644;23.366;2023-02-28T01:59:22;94693.28;;;5.68;100.00
9721;BME280;4899;42.644;23.366;2023-02-28T02:01:49;94683.59;;;5.70;100.00
9721;BME280;4899;42.644;23.366;2023-02-28T02:04:15;94694.28;;;5.77;100.00
9721;BME280;4899;42.644;23.366;2023-02-28T02:06:43;94706.50;;;5.80;100.00
9721;BME280;4899;42.644;23.366;2023-02-28T02:09:10;94688.94;;;5.74;100.00
9721;BME280;4899;42.644;23.366;2023-02-28T02:11:36;94686.84;;;5.81;100.00
9721;BME280;4899;42.644;23.366;2023-02-28T02:14:24;94688.59;;;5.85;100.00
9721;BME280;4899;42.644;23.366;2023-02-28T02:22:48;94694.19;;;5.93;100.00
9721;BME280;4899;42.644;23.366;2023-02-28T02:28:24;94686.03;;;5.96;100.00
9721;BME280;4899;42.644;23.366;2023-02-28T02:43:02;94692.41;;;5.98;100.00
9721;BME280;4899;42.644;23.366;2023-02-28T02:45:34;94688.59;;;5.91;100.00
9721;BME280;4899;42.644;23.366;2023-02-28T02:48:03;94693.44;;;5.92;100.00
9721;BME280;4899;42.644;23.366;2023-02-28T02:50:36;94690.88;;;5.97;100.00
9721;BME280;4899;42.644;23.366;2023-02-28T02:53:04;94699.03;;;5.99;100.00
9721;BME280;4899;42.644;23.366;2023-02-28T02:55:34;94698.53;;;5.97;100.00
9721;BME280;4899;42.644;23.366;2023-02-28T02:58:05;94699.28;;;5.98;100.00
9721;BME280;4899;42.644;23.366;2023-02-28T03:00:40;94705.44;;;5.97;100.00
9721;BME280;4899;42.644;23.366;2023-02-28T03:03:08;94711.56;;;5.96;100.00
9721;BME280;4899;42.644;23.366;2023-02-28T03:05:48;94725.31;;;6.00;100.00
9721;BME280;4899;42.644;23.366;2023-02-28T03:08:13;94731.69;;;6.02;100.00
9721;BME280;4899;42.644;23.366;2023-02-28T03:10:45;94724.75;;;6.08;100.00
9721;BME280;4899;42.644;23.366;2023-02-28T03:26:21;94745.13;;;6.13;100.00
9721;BME280;4899;42.644;23.366;2023-02-28T03:28:53;94744.13;;;6.14;100.00
9721;BME280;4899;42.644;23.366;2023-02-28T03:31:36;94749.19;;;6.19;100.00
9721;BME280;4899;42.644;23.366;2023-02-28T03:34:12;94750.97;;;6.18;100.00
9721;BME280;4899;42.644;23.366;2023-02-28T03:36:48;94747.44;;;6.14;100.00
9721;BME280;4899;42.644;23.366;2023-02-28T03:39:21;94735.47;;;6.10;100.00
9721;BME280;4899;42.644;23.366;2023-02-28T03:42:00;94745.09;;;6.18;100.00
9721;BME280;4899;42.644;23.366;2023-02-28T03:44:32;94740.38;;;6.01;100.00
9721;BME280;4899;42.644;23.366;2023-02-28T03:47:24;94762.25;;;6.12;100.00
9721;BME280;4899;42.644;23.366;2023-02-28T03:50:38;94759.47;;;6.09;100.00
9721;BME280;4899;42.644;23.366;2023-02-28T03:53:11;94753.38;;;6.05;100.00
9721;BME280;4899;42.644;23.366;2023-02-28T03:55:39;94759.25;;;6.05;100.00
9721;BME280;4899;42.644;23.366;2023-02-28T03:58:13;94754.94;;;6.01;100.00
9721;BME280;4899;42.644;23.366;2023-02-28T04:00:48;94767.16;;;6.04;100.00
9721;BME280;4899;42.644;23.366;2023-02-28T04:03:16;94763.63;;;6.00;100.00
9721;BME280;4899;42.644;23.366;2023-02-28T04:05:52;94767.16;;;6.04;100.00
9721;BME280;4899;42.644;23.366;2023-02-28T04:08:18;94758.75;;;6.03;100.00
9721;BME280;4899;42.644;23.366;2023-02-28T04:10:45;94750.09;;;5.99;100.00
9721;BME280;4899;42.644;23.366;2023-02-28T04:13:13;94744.75;;;5.91;100.00
9721;BME280;4899;42.644;23.366;2023-02-28T04:15:38;94748.84;;;5.97;100.00
9721;BME280;4899;42.644;23.366;2023-02-28T04:18:04;94759.31;;;5.95;100.00
9721;BME280;4899;42.644;23.366;2023-02-28T04:20:29;94748.84;;;5.86;100.00
9721;BME280;4899;42.644;23.366;2023-02-28T04:22:55;94756.00;;;5.90;100.00
9721;BME280;4899;42.644;23.366;2023-02-28T04:25:21;94748.56;;;5.88;100.00
9721;BME280;4899;42.644;23.366;2023-02-28T04:27:46;94753.44;;;5.84;100.00
9721;BME280;4899;42.644;23.366;2023-02-28T04:30:12;94755.47;;;5.87;100.00
9721;BME280;4899;42.644;23.366;2023-02-28T04:32:37;94745.78;;;5.84;100.00
9721;BME280;4899;42.644;23.366;2023-02-28T04:35:03;94749.91;;;5.80;100.00
9721;BME280;4899;42.644;23.366;2023-02-28T04:37:29;94757.03;;;5.83;100.00
9721;BME280;4899;42.644;23.366;2023-02-28T04:39:54;94753.47;;;5.79;100.00
9721;BME280;4899;42.644;23.366;2023-02-28T04:42:21;94761.13;;;5.79;100.00
9721;BME280;4899;42.644;23.366;2023-02-28T04:44:46;94764.72;;;5.78;100.00
9721;BME280;4899;42.644;23.366;2023-02-28T04:47:12;94767.53;;;5.77;100.00
9721;BME280;4899;42.644;23.366;2023-02-28T04:49:38;94777.50;;;5.68;100.00
9721;BME280;4899;42.644;23.366;2023-02-28T04:52:04;94766.78;;;5.71;100.00
9721;BME280;4899;42.644;23.366;2023-02-28T04:54:30;94774.94;;;5.68;100.00
9721;BME280;4899;42.644;23.366;2023-02-28T04:56:55;94773.44;;;5.67;100.00
9721;BME280;4899;42.644;23.366;2023-02-28T04:59:21;94772.94;;;5.70;100.00
9721;BME280;4899;42.644;23.366;2023-02-28T05:01:48;94764.25;;;5.66;100.00
9721;BME280;4899;42.644;23.366;2023-02-28T05:04:14;94775.72;;;5.74;100.00
9721;BME280;4899;42.644;23.366;2023-02-28T05:06:40;94763.22;;;5.67;100.00
9721;BME280;4899;42.644;23.366;2023-02-28T05:09:05;94774.69;;;5.75;100.00
9721;BME280;4899;42.644;23.366;2023-02-28T05:11:32;94787.19;;;5.76;100.00
9721;BME280;4899;42.644;23.366;2023-02-28T05:14:08;94784.66;;;5.71;100.00
9721;BME280;4899;42.644;23.366;2023-02-28T05:16:35;94783.63;;;5.67;100.00
9721;BME280;4899;42.644;23.366;2023-02-28T05:19:01;94792.81;;;5.68;100.00
9721;BME280;4899;42.644;23.366;2023-02-28T05:21:31;94793.34;;;5.70;100.00
9721;BME280;4899;42.644;23.366;2023-02-28T05:24:02;94789.25;;;5.64;100.00
9721;BME280;4899;42.644;23.366;2023-02-28T05:26:28;94790.03;;;5.65;100.00
9721;BME280;4899;42.644;23.366;2023-02-28T05:28:54;94788.50;;;5.64;100.00
9721;BME280;4899;42.644;23.366;2023-02-28T05:31:19;94808.13;;;5.73;100.00
9721;BME280;4899;42.644;23.366;2023-02-28T05:33:45;94795.13;;;5.65;100.00
9721;BME280;4899;42.644;23.366;2023-02-28T05:36:11;94801.25;;;5.74;100.00
9721;BME280;4899;42.644;23.366;2023-02-28T05:38:36;94809.13;;;5.77;100.00
9721;BME280;4899;42.644;23.366;2023-02-28T05:41:09;94803.97;;;5.87;100.00
9721;BME280;4899;42.644;23.366;2023-02-28T05:43:37;94830.00;;;5.95;100.00
9721;BME280;4899;42.644;23.366;2023-02-28T05:46:07;94812.66;;;5.97;100.00
9721;BME280;4899;42.644;23.366;2023-02-28T05:48:34;94818.50;;;6.02;100.00
9721;BME280;4899;42.644;23.366;2023-02-28T05:51:00;94816.72;;;6.03;100.00
9721;BME280;4899;42.644;23.366;2023-02-28T05:53:26;94827.94;;;6.07;100.00
9721;BME280;4899;42.644;23.366;2023-02-28T05:55:52;94824.09;;;6.04;100.00
9721;BME280;4899;42.644;23.366;2023-02-28T05:58:17;94826.13;;;6.07;100.00
9721;BME280;4899;42.644;23.366;2023-02-28T06:00:43;94823.78;;;6.16;100.00
9721;BME280;4899;42.644;23.366;2023-02-28T06:03:09;94824.56;;;6.11;100.00
9721;BME280;4899;42.644;23.366;2023-02-28T06:05:34;94816.19;;;6.06;100.00
9721;BME280;4899;42.644;23.366;2023-02-28T06:08:00;94818.69;;;6.11;100.00
9721;BME280;4899;42.644;23.366;2023-02-28T06:10:25;94820.47;;;6.15;100.00
9721;BME280;4899;42.644;23.366;2023-02-28T06:12:51;94811.50;;;6.23;100.00
9721;BME280;4899;42.644;23.366;2023-02-28T06:15:16;94817.00;;;6.40;100.00
9721;BME280;4899;42.644;23.366;2023-02-28T06:17:43;94825.63;;;6.55;100.00
9721;BME280;4899;42.644;23.366;2023-02-28T06:20:10;94828.09;;;6.65;100.00
9721;BME280;4899;42.644;23.366;2023-02-28T06:22:38;94822.91;;;6.75;100.00
9721;BME280;4899;42.644;23.366;2023-02-28T06:25:05;94811.41;;;6.77;100.00
9721;BME280;4899;42.644;23.366;2023-02-28T06:27:31;94815.44;;;6.84;100.00
9721;BME280;4899;42.644;23.366;2023-02-28T06:29:57;94817.22;;;6.83;100.00
9721;BME280;4899;42.644;23.366;2023-02-28T06:32:22;94821.75;;;6.96;100.00
9721;BME280;4899;42.644;23.366;2023-02-28T06:34:48;94828.56;;;7.06;100.00
9721;BME280;4899;42.644;23.366;2023-02-28T06:37:14;94827.19;;;7.14;100.00
9721;BME280;4899;42.644;23.366;2023-02-28T06:39:39;94825.09;;;7.21;100.00
9721;BME280;4899;42.644;23.366;2023-02-28T06:42:05;94828.16;;;7.23;100.00
9721;BME280;4899;42.644;23.366;2023-02-28T06:44:30;94846.56;;;7.25;100.00
9721;BME280;4899;42.644;23.366;2023-02-28T06:47:05;94841.97;;;7.22;100.00
9721;BME280;4899;42.644;23.366;2023-02-28T06:49:32;94845.25;;;7.27;100.00
9721;BME280;4899;42.644;23.366;2023-02-28T06:51:58;94842.97;;;7.26;100.00
9721;BME280;4899;42.644;23.366;2023-02-28T06:54:24;94838.06;;;7.29;100.00
9721;BME280;4899;42.644;23.366;2023-02-28T06:56:49;94834.78;;;7.24;100.00
9721;BME280;4899;42.644;23.366;2023-02-28T06:59:15;94846.66;;;7.38;100.00
9721;BME280;4899;42.644;23.366;2023-02-28T07:01:41;94850.97;;;7.43;100.00
9721;BME280;4899;42.644;23.366;2023-02-28T07:04:07;94855.31;;;7.48;100.00
9721;BME280;4899;42.644;23.366;2023-02-28T07:06:33;94845.84;;;7.48;100.00
9721;BME280;4899;42.644;23.366;2023-02-28T07:08:58;94849.91;;;7.49;100.00
9721;BME280;4899;42.644;23.366;2023-02-28T07:11:26;94847.03;;;7.56;100.00
9721;BME280;4899;42.644;23.366;2023-02-28T07:13:55;94848.22;;;7.63;100.00
9721;BME280;4899;42.644;23.366;2023-02-28T07:16:21;94840.53;;;7.63;100.00
9721;BME280;4899;42.644;23.366;2023-02-28T07:18:47;94842.53;;;7.71;100.00
9721;BME280;4899;42.644;23.366;2023-02-28T07:21:13;94833.94;;;7.81;100.00
9721;BME280;4899;42.644;23.366;2023-02-28T07:23:39;94841.84;;;7.85;100.00
9721;BME280;4899;42.644;23.366;2023-02-28T07:26:06;94857.59;;;7.97;100.00
9721;BME280;4899;42.644;23.366;2023-02-28T07:28:32;94845.34;;;8.13;100.00
9721;BME280;4899;42.644;23.366;2023-02-28T07:31:06;94858.19;;;8.31;100.00
9721;BME280;4899;42.644;23.366;2023-02-28T07:33:32;94845.78;;;8.44;100.00
9721;BME280;4899;42.644;23.366;2023-02-28T07:36:07;94846.59;;;8.58;100.00
9721;BME280;4899;42.644;23.366;2023-02-28T07:38:36;94850.88;;;8.81;100.00
9721;BME280;4899;42.644;23.366;2023-02-28T07:41:03;94856.28;;;9.12;100.00
9721;BME280;4899;42.644;23.366;2023-02-28T07:43:32;94858.16;;;9.25;100.00
9721;BME280;4899;42.644;23.366;2023-02-28T07:46:05;94855.59;;;9.39;100.00
9721;BME280;4899;42.644;23.366;2023-02-28T07:48:31;94860.56;;;9.49;100.00
9721;BME280;4899;42.644;23.366;2023-02-28T07:50:57;94858.38;;;9.56;100.00
9721;BME280;4899;42.644;23.366;2023-02-28T07:53:23;94857.91;;;9.54;100.00
9721;BME280;4899;42.644;23.366;2023-02-28T07:55:48;94856.75;;;9.61;100.00
9721;BME280;4899;42.644;23.366;2023-02-28T07:58:14;94853.56;;;9.69;100.00
9721;BME280;4899;42.644;23.366;2023-02-28T08:00:40;94846.88;;;9.81;100.00
9721;BME280;4899;42.644;23.366;2023-02-28T08:03:05;94844.69;;;10.02;100.00
9721;BME280;4899;42.644;23.366;2023-02-28T08:05:30;94842.03;;;10.21;100.00
9721;BME280;4899;42.644;23.366;2023-02-28T08:07:56;94851.25;;;10.36;100.00
9721;BME280;4899;42.644;23.366;2023-02-28T08:10:22;94848.13;;;10.61;100.00
9721;BME280;4899;42.644;23.366;2023-02-28T08:12:47;94852.47;;;10.74;100.00
9721;BME280;4899;42.644;23.366;2023-02-28T08:15:13;94848.63;;;10.86;100.00
9721;BME280;4899;42.644;23.366;2023-02-28T08:17:38;94847.84;;;11.07;100.00
9721;BME280;4899;42.644;23.366;2023-02-28T08:20:04;94848.47;;;11.13;100.00
9721;BME280;4899;42.644;23.366;2023-02-28T08:22:30;94849.78;;;11.24;100.00
9721;BME280;4899;42.644;23.366;2023-02-28T08:24:55;94851.03;;;11.35;100.00
9721;BME280;4899;42.644;23.366;2023-02-28T08:27:21;94843.59;;;11.34;100.00
9721;BME280;4899;42.644;23.366;2023-02-28T08:29:46;94848.13;;;11.28;100.00
9721;BME280;4899;42.644;23.366;2023-02-28T08:32:13;94845.38;;;11.25;100.00
9721;BME280;4899;42.644;23.366;2023-02-28T08:34:39;94857.97;;;11.26;100.00
9721;BME280;4899;42.644;23.366;2023-02-28T08:37:05;94855.34;;;11.18;100.00
9721;BME280;4899;42.644;23.366;2023-02-28T08:39:34;94864.91;;;11.17;100.00
9721;BME280;4899;42.644;23.366;2023-02-28T08:42:00;94857.63;;;11.19;100.00
9721;BME280;4899;42.644;23.366;2023-02-28T08:44:25;94852.06;;;11.26;100.00
9721;BME280;4899;42.644;23.366;2023-02-28T08:46:52;94854.97;;;11.33;100.00
9721;BME280;4899;42.644;23.366;2023-02-28T08:49:17;94846.91;;;11.26;100.00
9721;BME280;4899;42.644;23.366;2023-02-28T08:51:43;94853.84;;;11.48;100.00
9721;BME280;4899;42.644;23.366;2023-02-28T08:54:09;94852.97;;;11.61;100.00
9721;BME280;4899;42.644;23.366;2023-02-28T08:56:38;94855.56;;;11.61;100.00
9721;BME280;4899;42.644;23.366;2023-02-28T08:59:03;94865.06;;;11.52;100.00
9721;BME280;4899;42.644;23.366;2023-02-28T09:01:30;94860.69;;;11.52;100.00
9721;BME280;4899;42.644;23.366;2023-02-28T09:03:57;94864.00;;;11.53;100.00
9721;BME280;4899;42.644;23.366;2023-02-28T09:06:24;94862.97;;;11.54;100.00
9721;BME280;4899;42.644;23.366;2023-02-28T09:08:51;94860.84;;;11.56;100.00
9721;BME280;4899;42.644;23.366;2023-02-28T09:11:17;94860.50;;;11.49;100.00
9721;BME280;4899;42.644;23.366;2023-02-28T09:13:44;94861.25;;;11.40;100.00
9721;BME280;4899;42.644;23.366;2023-02-28T09:16:12;94852.56;;;11.36;100.00
9721;BME280;4899;42.644;23.366;2023-02-28T09:18:38;94855.03;;;11.42;100.00
9721;BME280;4899;42.644;23.366;2023-02-28T09:21:05;94861.41;;;11.44;100.00
9721;BME280;4899;42.644;23.366;2023-02-28T09:23:30;94854.44;;;11.45;100.00
9721;BME280;4899;42.644;23.366;2023-02-28T09:25:56;94852.91;;;11.44;100.00
9721;BME280;4899;42.644;23.366;2023-02-28T09:28:22;94861.31;;;11.58;100.00
9721;BME280;4899;42.644;23.366;2023-02-28T09:30:50;94853.28;;;11.59;100.00
9721;BME280;4899;42.644;23.366;2023-02-28T09:33:17;94851.06;;;11.66;100.00
9721;BME280;4899;42.644;23.366;2023-02-28T09:35:42;94851.22;;;11.70;100.00
9721;BME280;4899;42.644;23.366;2023-02-28T09:38:09;94855.19;;;11.76;100.00
9721;BME280;4899;42.644;23.366;2023-02-28T09:40:48;94854.31;;;11.81;100.00
9721;BME280;4899;42.644;23.366;2023-02-28T09:43:15;94856.78;;;11.94;100.00
9721;BME280;4899;42.644;23.366;2023-02-28T09:45:48;94837.25;;;12.02;100.00
9721;BME280;4899;42.644;23.366;2023-02-28T09:48:19;94849.72;;;12.17;100.00
9721;BME280;4899;42.644;23.366;2023-02-28T09:50:59;94848.81;;;12.22;100.00
9721;BME280;4899;42.644;23.366;2023-02-28T09:53:31;94850.63;;;12.39;100.00
9721;BME280;4899;42.644;23.366;2023-02-28T10:01:53;94846.75;;;12.67;100.00
9721;BME280;4899;42.644;23.366;2023-02-28T10:04:29;94844.28;;;12.79;100.00
9721;BME280;4899;42.644;23.366;2023-02-28T10:07:03;94840.50;;;12.94;100.00
9721;BME280;4899;42.644;23.366;2023-02-28T10:09:32;94839.56;;;12.99;100.00
9721;BME280;4899;42.644;23.366;2023-02-28T10:12:04;94833.03;;;13.01;100.00
9721;BME280;4899;42.644;23.366;2023-02-28T10:14:33;94834.88;;;13.01;100.00
9721;BME280;4899;42.644;23.366;2023-02-28T10:17:11;94829.84;;;13.04;100.00
9721;BME280;4899;42.644;23.366;2023-02-28T10:20:05;94833.19;;;13.05;100.00
9721;BME280;4899;42.644;23.366;2023-02-28T10:23:17;94833.16;;;13.13;100.00
9721;BME280;4899;42.644;23.366;2023-02-28T10:25:39;94837.09;;;13.37;100.00
9721;BME280;4899;42.644;23.366;2023-02-28T10:30:33;94821.72;;;13.49;100.00
9721;BME280;4899;42.644;23.366;2023-02-28T10:32:59;94814.03;;;13.61;100.00
9721;BME280;4899;42.644;23.366;2023-02-28T10:35:26;94810.75;;;13.81;100.00
9721;BME280;4899;42.644;23.366;2023-02-28T10:37:59;94806.13;;;13.96;100.00
9721;BME280;4899;42.644;23.366;2023-02-28T10:40:31;94816.13;;;14.06;100.00
9721;BME280;4899;42.644;23.366;2023-02-28T10:43:17;94807.00;;;14.29;100.00
9721;BME280;4899;42.644;23.366;2023-02-28T10:48:34;94803.97;;;14.27;100.00
9721;BME280;4899;42.644;23.366;2023-02-28T10:51:00;94790.94;;;13.94;100.00
9721;BME280;4899;42.644;23.366;2023-02-28T10:53:53;94794.19;;;13.82;100.00
9721;BME280;4899;42.644;23.366;2023-02-28T10:56:24;94789.25;;;13.98;100.00
9721;BME280;4899;42.644;23.366;2023-02-28T11:03:53;94765.69;;;14.12;100.00
9721;BME280;4899;42.644;23.366;2023-02-28T11:06:22;94770.63;;;14.05;100.00
9721;BME280;4899;42.644;23.366;2023-02-28T11:10:16;94755.44;;;13.74;100.00
9721;BME280;4899;42.644;23.366;2023-02-28T11:12:39;94764.00;;;13.95;100.00
9721;BME280;4899;42.644;23.366;2023-02-28T11:15:27;94762.28;;;13.99;100.00
9721;BME280;4899;42.644;23.366;2023-02-28T11:18:19;94753.41;;;14.09;100.00
9721;BME280;4899;42.644;23.366;2023-02-28T11:20:51;94756.13;;;14.33;100.00
9721;BME280;4899;42.644;23.366;2023-02-28T11:23:18;94759.72;;;14.41;100.00
9721;BME280;4899;42.644;23.366;2023-02-28T11:25:51;94754.69;;;14.44;100.00
9721;BME280;4899;42.644;23.366;2023-02-28T11:28:36;94756.44;;;14.53;100.00
9721;BME280;4899;42.644;23.366;2023-02-28T11:36:16;94766.34;;;14.30;100.00
9721;BME280;4899;42.644;23.366;2023-02-28T11:38:42;94753.66;;;14.16;100.00
9721;BME280;4899;42.644;23.366;2023-02-28T11:44:19;94764.09;;;14.82;100.00
9721;BME280;4899;42.644;23.366;2023-02-28T11:46:58;94750.16;;;15.32;100.00
9721;BME280;4899;42.644;23.366;2023-02-28T11:49:47;94761.22;;;15.90;100.00
9721;BME280;4899;42.644;23.366;2023-02-28T11:52:42;94756.69;;;16.27;97.95
9721;BME280;4899;42.644;23.366;2023-02-28T12:01:07;94751.50;;;16.55;91.16
9721;BME280;4899;42.644;23.366;2023-02-28T12:12:15;94765.94;;;17.87;87.95
9721;BME280;4899;42.644;23.366;2023-02-28T12:14:48;94762.50;;;18.02;91.99
9721;BME280;4899;42.644;23.366;2023-02-28T12:28:46;94739.66;;;17.29;82.37
9721;BME280;4899;42.644;23.366;2023-02-28T12:31:19;94750.47;;;17.31;86.95
9721;BME280;4899;42.644;23.366;2023-02-28T12:33:56;94745.13;;;17.24;82.68
9721;BME280;4899;42.644;23.366;2023-02-28T12:36:25;94744.97;;;17.17;89.21
9721;BME280;4899;42.644;23.366;2023-02-28T12:39:03;94757.88;;;17.45;80.92
9721;BME280;4899;42.644;23.366;2023-02-28T12:41:41;94753.75;;;17.28;84.22
9721;BME280;4899;42.644;23.366;2023-02-28T12:44:30;94746.63;;;16.94;82.81
9721;BME280;4899;42.644;23.366;2023-02-28T12:47:00;94738.50;;;16.39;88.35
9721;BME280;4899;42.644;23.366;2023-02-28T12:49:39;94739.91;;;15.84;89.38
9721;BME280;4899;42.644;23.366;2023-02-28T12:52:06;94744.25;;;15.44;95.94
9721;BME280;4899;42.644;23.366;2023-02-28T13:10:50;94740.59;;;15.69;95.96
9721;BME280;4899;42.644;23.366;2023-02-28T13:13:22;94736.13;;;15.82;95.47
9721;BME280;4899;42.644;23.366;2023-02-28T13:18:41;94730.53;;;15.67;92.95
9721;BME280;4899;42.644;23.366;2023-02-28T13:21:10;94740.88;;;15.92;93.78
9721;BME280;4899;42.644;23.366;2023-02-28T13:26:23;94727.13;;;16.44;90.72
9721;BME280;4899;42.644;23.366;2023-02-28T13:31:14;94737.91;;;16.18;89.64
9721;BME280;4899;42.644;23.366;2023-02-28T13:38:47;94743.06;;;15.78;88.77
9721;BME280;4899;42.644;23.366;2023-02-28T14:00:35;94713.66;;;13.93;100.00
9721;BME280;4899;42.644;23.366;2023-02-28T14:03:27;94711.69;;;13.69;100.00
9721;BME280;4899;42.644;23.366;2023-02-28T14:08:50;94707.22;;;13.19;100.00
9721;BME280;4899;42.644;23.366;2023-02-28T14:11:30;94721.63;;;13.11;100.00
9721;BME280;4899;42.644;23.366;2023-02-28T14:13:57;94716.81;;;13.01;100.00
9721;BME280;4899;42.644;23.366;2023-02-28T14:16:24;94719.75;;;12.91;100.00
9721;BME280;4899;42.644;23.366;2023-02-28T14:19:01;94717.69;;;12.67;100.00
9721;BME280;4899;42.644;23.366;2023-02-28T14:21:34;94716.16;;;12.57;100.00
9721;BME280;4899;42.644;23.366;2023-02-28T14:24:29;94710.44;;;12.43;100.00
9721;BME280;4899;42.644;23.366;2023-02-28T14:32:21;94725.31;;;12.20;100.00
9721;BME280;4899;42.644;23.366;2023-02-28T14:34:55;94727.28;;;12.06;100.00
9721;BME280;4899;42.644;23.366;2023-02-28T14:37:30;94721.22;;;11.93;100.00
9721;BME280;4899;42.644;23.366;2023-02-28T14:39:59;94716.78;;;11.85;100.00
9721;BME280;4899;42.644;23.366;2023-02-28T14:42:36;94718.13;;;11.74;100.00
9721;BME280;4899;42.644;23.366;2023-02-28T14:45:22;94716.88;;;11.63;100.00
9721;BME280;4899;42.644;23.366;2023-02-28T14:47:50;94715.44;;;11.39;100.00
9721;BME280;4899;42.644;23.366;2023-02-28T14:50:25;94719.09;;;11.38;100.00
9721;BME280;4899;42.644;23.366;2023-02-28T14:52:55;94717.72;;;11.32;100.00
9721;BME280;4899;42.644;23.366;2023-02-28T14:55:28;94708.28;;;11.19;100.00
9721;BME280;4899;42.644;23.366;2023-02-28T14:58:02;94720.09;;;11.20;100.00
9721;BME280;4899;42.644;23.366;2023-02-28T15:00:32;94723.84;;;11.14;100.00
9721;BME280;4899;42.644;23.366;2023-02-28T15:02:59;94723.22;;;11.08;100.00
9721;BME280;4899;42.644;23.366;2023-02-28T15:05:33;94719.88;;;10.99;100.00
9721;BME280;4899;42.644;23.366;2023-02-28T15:10:30;94704.66;;;10.89;100.00
9721;BME280;4899;42.644;23.366;2023-02-28T15:18:03;94708.38;;;10.74;100.00
9721;BME280;4899;42.644;23.366;2023-02-28T15:20:32;94712.47;;;10.75;100.00
9721;BME280;4899;42.644;23.366;2023-02-28T15:22:58;94720.03;;;10.72;100.00
9721;BME280;4899;42.644;23.366;2023-02-28T15:25:25;94721.47;;;10.64;100.00
9721;BME280;4899;42.644;23.366;2023-02-28T15:27:56;94713.25;;;10.54;100.00
9721;BME280;4899;42.644;23.366;2023-02-28T15:30:27;94721.84;;;10.49;100.00
9721;BME280;4899;42.644;23.366;2023-02-28T15:35:37;94723.25;;;10.33;100.00
9721;BME280;4899;42.644;23.366;2023-02-28T15:38:25;94723.84;;;10.30;100.00
9721;BME280;4899;42.644;23.366;2023-02-28T15:43:29;94726.72;;;10.14;100.00
9721;BME280;4899;42.644;23.366;2023-02-28T15:48:29;94717.41;;;10.05;100.00
9721;BME280;4899;42.644;23.366;2023-02-28T15:53:37;94725.41;;;10.03;100.00
9721;BME280;4899;42.644;23.366;2023-02-28T15:56:07;94724.50;;;9.99;100.00
9721;BME280;4899;42.644;23.366;2023-02-28T15:58:41;94712.13;;;9.87;100.00
9721;BME280;4899;42.644;23.366;2023-02-28T16:01:17;94710.44;;;9.83;100.00
9721;BME280;4899;42.644;23.366;2023-02-28T16:03:48;94715.09;;;9.81;100.00